ETH955 FOOL-HAAB
Flight info
| Callsign | ETH955 |
|---|---|
| Flight time | 4h 15m |
| Altitude | 35000 |
| Route | ONKAR1S ONKAR UG625 KISDU/N0460F370 UG625 MPK UT139 ASKON L558 DASTU UT139 BRO BRO2A |
| Aircraft | B38M/M-SDE1FGHILORVWXY/HB1 |
Departure
| Time | 2026-04-22 10:33 |
|---|---|
| Airport | Libreville Leon M'ba International Airport (FOOL) |
Arrival
| Time | 2026-04-22 14:48 |
|---|---|
| Airport | Addis Ababa Bole International Airport (HAAB) |
| Time | Latitude | Longitude | Altitude | Speed | Heading |
|---|---|---|---|---|---|
| 2026-04-22 10:07 | 0.45745 | 9.41083 | 39 ft | 0 kts | 238° |
| 2026-04-22 10:22 | 0.45749 | 9.41081 | 38 ft | 2 kts | 218° |
| 2026-04-22 10:23 | 0.45751 | 9.41083 | 39 ft | 4 kts | 175° |
| 2026-04-22 10:23 | 0.45777 | 9.41079 | 39 ft | 4 kts | 173° |
| 2026-04-22 10:23 | 0.45794 | 9.41081 | 37 ft | 4 kts | 240° |
| 2026-04-22 10:23 | 0.45803 | 9.41102 | 38 ft | 4 kts | 256° |
| 2026-04-22 10:24 | 0.45804 | 9.41128 | 39 ft | 4 kts | 284° |
| 2026-04-22 10:24 | 0.45797 | 9.41153 | 38 ft | 2 kts | 283° |
| 2026-04-22 10:24 | 0.45796 | 9.41153 | 38 ft | 0 kts | 283° |
| 2026-04-22 10:28 | 0.45798 | 9.41146 | 38 ft | 3 kts | 284° |
| 2026-04-22 10:28 | 0.45793 | 9.41121 | 38 ft | 2 kts | 195° |
| 2026-04-22 10:28 | 0.45790 | 9.41127 | 35 ft | 1 kts | 99° |
| 2026-04-22 10:28 | 0.45800 | 9.41148 | 38 ft | 8 kts | 66° |
| 2026-04-22 10:29 | 0.45855 | 9.41210 | 39 ft | 16 kts | 11° |
| 2026-04-22 10:29 | 0.45965 | 9.41179 | 39 ft | 17 kts | 333° |
| 2026-04-22 10:29 | 0.46075 | 9.41126 | 39 ft | 18 kts | 334° |
| 2026-04-22 10:29 | 0.46190 | 9.41071 | 40 ft | 19 kts | 334° |
| 2026-04-22 10:30 | 0.46310 | 9.41015 | 41 ft | 20 kts | 334° |
| 2026-04-22 10:30 | 0.46435 | 9.40956 | 42 ft | 20 kts | 334° |
| 2026-04-22 10:30 | 0.46562 | 9.40894 | 40 ft | 21 kts | 334° |
| 2026-04-22 10:30 | 0.46698 | 9.40829 | 41 ft | 22 kts | 334° |
| 2026-04-22 10:31 | 0.46842 | 9.40760 | 41 ft | 23 kts | 334° |
| 2026-04-22 10:31 | 0.46989 | 9.40688 | 40 ft | 21 kts | 328° |
| 2026-04-22 10:31 | 0.47049 | 9.40618 | 40 ft | 8 kts | 22° |
| 2026-04-22 10:31 | 0.47061 | 9.40648 | 40 ft | 4 kts | 109° |
| 2026-04-22 10:32 | 0.47039 | 9.40666 | 40 ft | 5 kts | 147° |
| 2026-04-22 10:32 | 0.46954 | 9.40707 | 39 ft | 43 kts | 154° |
| 2026-04-22 10:32 | 0.46438 | 9.40960 | 42 ft | 120 kts | 154° |
| 2026-04-22 10:32 | 0.45477 | 9.41412 | 62 ft | 181 kts | 156° |
| 2026-04-22 10:33 | 0.44279 | 9.41989 | 736 ft | 199 kts | 155° |
| 2026-04-22 10:33 | 0.43028 | 9.42589 | 1809 ft | 200 kts | 153° |
| 2026-04-22 10:33 | 0.41925 | 9.43564 | 2248 ft | 229 kts | 122° |
| 2026-04-22 10:33 | 0.41512 | 9.45141 | 2833 ft | 242 kts | 86° |
| 2026-04-22 10:34 | 0.42031 | 9.46727 | 3763 ft | 243 kts | 62° |
| 2026-04-22 10:34 | 0.42805 | 9.48276 | 4578 ft | 256 kts | 64° |
| 2026-04-22 10:34 | 0.43593 | 9.49922 | 5270 ft | 270 kts | 64° |
| 2026-04-22 10:34 | 0.44427 | 9.51632 | 5520 ft | 273 kts | 64° |
| 2026-04-22 10:35 | 0.45259 | 9.53339 | 5655 ft | 273 kts | 64° |
| 2026-04-22 10:35 | 0.46096 | 9.55042 | 5780 ft | 273 kts | 64° |
| 2026-04-22 10:35 | 0.46931 | 9.56746 | 5871 ft | 274 kts | 64° |
| 2026-04-22 10:35 | 0.47767 | 9.58452 | 5893 ft | 273 kts | 64° |
| 2026-04-22 10:36 | 0.48541 | 9.60189 | 6050 ft | 271 kts | 71° |
| 2026-04-22 10:36 | 0.49151 | 9.61963 | 6845 ft | 274 kts | 70° |
| 2026-04-22 10:36 | 0.49787 | 9.63761 | 7766 ft | 275 kts | 70° |
| 2026-04-22 10:36 | 0.50431 | 9.65566 | 8642 ft | 277 kts | 70° |
| 2026-04-22 10:37 | 0.51085 | 9.67383 | 9547 ft | 279 kts | 70° |
| 2026-04-22 10:37 | 0.52443 | 9.71142 | 10651 ft | 305 kts | 70° |
| 2026-04-22 10:37 | 0.53185 | 9.73197 | 11055 ft | 321 kts | 70° |
| 2026-04-22 10:38 | 0.53946 | 9.75333 | 11644 ft | 329 kts | 70° |
| 2026-04-22 10:38 | 0.54711 | 9.77485 | 12525 ft | 330 kts | 71° |
| 2026-04-22 10:38 | 0.55489 | 9.79669 | 13271 ft | 335 kts | 71° |
| 2026-04-22 10:38 | 0.56275 | 9.81873 | 13990 ft | 338 kts | 71° |
| 2026-04-22 10:39 | 0.57068 | 9.84100 | 14561 ft | 342 kts | 71° |
| 2026-04-22 10:39 | 0.57868 | 9.86346 | 15150 ft | 345 kts | 71° |
| 2026-04-22 10:39 | 0.58678 | 9.88621 | 15715 ft | 349 kts | 71° |
| 2026-04-22 10:39 | 0.59494 | 9.90912 | 16273 ft | 352 kts | 71° |
| 2026-04-22 10:40 | 0.60318 | 9.93225 | 16802 ft | 355 kts | 71° |
| 2026-04-22 10:40 | 0.61150 | 9.95561 | 17331 ft | 359 kts | 71° |
| 2026-04-22 10:40 | 0.61989 | 9.97918 | 17850 ft | 362 kts | 71° |
| 2026-04-22 10:40 | 0.62837 | 10.00299 | 18325 ft | 365 kts | 71° |
| 2026-04-22 10:41 | 0.63692 | 10.02699 | 18754 ft | 368 kts | 71° |
| 2026-04-22 10:41 | 0.64553 | 10.05115 | 19186 ft | 371 kts | 71° |
| 2026-04-22 10:41 | 0.65126 | 10.06724 | 19461 ft | 372 kts | 71° |
| 2026-04-22 10:41 | 0.65997 | 10.09171 | 19864 ft | 375 kts | 71° |
| 2026-04-22 10:42 | 0.66874 | 10.11633 | 20292 ft | 378 kts | 71° |
| 2026-04-22 10:42 | 0.67758 | 10.14116 | 20692 ft | 381 kts | 71° |
| 2026-04-22 10:42 | 0.68933 | 10.17437 | 21195 ft | 385 kts | 71° |
| 2026-04-22 10:42 | 0.69543 | 10.19138 | 21495 ft | 386 kts | 71° |
| 2026-04-22 10:43 | 0.70742 | 10.22497 | 21994 ft | 390 kts | 71° |
| 2026-04-22 10:43 | 0.71357 | 10.24223 | 22245 ft | 391 kts | 71° |
| 2026-04-22 10:43 | 0.72272 | 10.26793 | 22627 ft | 394 kts | 71° |
| 2026-04-22 10:43 | 0.73195 | 10.29383 | 23000 ft | 397 kts | 71° |
| 2026-04-22 10:44 | 0.74123 | 10.31990 | 23359 ft | 399 kts | 71° |
| 2026-04-22 10:44 | 0.75056 | 10.34611 | 23669 ft | 402 kts | 71° |
| 2026-04-22 10:44 | 0.75996 | 10.37251 | 23977 ft | 404 kts | 71° |
| 2026-04-22 10:44 | 0.76941 | 10.39903 | 24287 ft | 406 kts | 71° |
| 2026-04-22 10:45 | 0.77889 | 10.42566 | 24585 ft | 408 kts | 71° |
| 2026-04-22 10:45 | 0.78843 | 10.45246 | 24887 ft | 410 kts | 71° |
| 2026-04-22 10:45 | 0.79801 | 10.47936 | 25178 ft | 412 kts | 71° |
| 2026-04-22 10:45 | 0.80763 | 10.50641 | 25474 ft | 414 kts | 71° |
| 2026-04-22 10:46 | 0.81732 | 10.53362 | 25773 ft | 416 kts | 71° |
| 2026-04-22 10:46 | 0.82705 | 10.56095 | 26053 ft | 418 kts | 71° |
| 2026-04-22 10:46 | 0.83681 | 10.58838 | 26339 ft | 420 kts | 71° |
| 2026-04-22 10:46 | 0.84663 | 10.61596 | 26619 ft | 422 kts | 71° |
| 2026-04-22 10:47 | 0.85650 | 10.64367 | 26890 ft | 425 kts | 70° |
| 2026-04-22 10:47 | 0.86642 | 10.67154 | 27157 ft | 427 kts | 70° |
| 2026-04-22 10:47 | 0.87639 | 10.69954 | 27445 ft | 429 kts | 70° |
| 2026-04-22 10:47 | 0.88639 | 10.72765 | 27718 ft | 431 kts | 70° |
| 2026-04-22 10:48 | 0.89632 | 10.75556 | 27980 ft | 433 kts | 70° |
| 2026-04-22 10:48 | 0.90643 | 10.78396 | 28251 ft | 435 kts | 70° |
| 2026-04-22 10:48 | 0.91658 | 10.81246 | 28512 ft | 436 kts | 70° |
| 2026-04-22 10:48 | 0.92676 | 10.84107 | 28769 ft | 438 kts | 70° |
| 2026-04-22 10:49 | 0.93699 | 10.86981 | 29028 ft | 440 kts | 70° |
| 2026-04-22 10:49 | 0.94739 | 10.89905 | 29279 ft | 442 kts | 70° |
| 2026-04-22 10:49 | 0.95757 | 10.92765 | 29526 ft | 443 kts | 70° |
| 2026-04-22 10:49 | 0.96793 | 10.95675 | 29767 ft | 445 kts | 70° |
| 2026-04-22 10:50 | 0.97833 | 10.98598 | 29984 ft | 447 kts | 70° |
| 2026-04-22 10:50 | 0.98877 | 11.01532 | 30192 ft | 449 kts | 70° |
| 2026-04-22 10:50 | 0.99924 | 11.04476 | 30392 ft | 450 kts | 70° |
| 2026-04-22 10:50 | 1.00975 | 11.07429 | 30592 ft | 452 kts | 70° |
| 2026-04-22 10:51 | 1.02028 | 11.10389 | 30791 ft | 453 kts | 70° |
| 2026-04-22 10:51 | 1.03267 | 11.13287 | 30969 ft | 455 kts | 60° |
| 2026-04-22 10:51 | 1.04889 | 11.15999 | 31177 ft | 455 kts | 60° |
| 2026-04-22 10:51 | 1.06487 | 11.18743 | 31338 ft | 458 kts | 60° |
| 2026-04-22 10:52 | 1.08097 | 11.21488 | 31538 ft | 459 kts | 60° |
| 2026-04-22 10:52 | 1.09716 | 11.24242 | 31717 ft | 460 kts | 60° |
| 2026-04-22 10:52 | 1.11344 | 11.27006 | 31900 ft | 462 kts | 60° |
| 2026-04-22 10:52 | 1.12977 | 11.29780 | 32079 ft | 463 kts | 60° |
| 2026-04-22 10:53 | 1.14612 | 11.32558 | 32254 ft | 465 kts | 60° |
| 2026-04-22 10:53 | 1.16251 | 11.35342 | 32443 ft | 466 kts | 60° |
| 2026-04-22 10:53 | 1.17893 | 11.38135 | 32667 ft | 466 kts | 60° |
| 2026-04-22 10:53 | 1.19519 | 11.40935 | 32899 ft | 465 kts | 59° |
| 2026-04-22 10:54 | 1.21156 | 11.43723 | 33141 ft | 465 kts | 60° |
| 2026-04-22 10:54 | 1.22809 | 11.46498 | 33356 ft | 465 kts | 60° |
| 2026-04-22 10:54 | 1.24455 | 11.49281 | 33603 ft | 465 kts | 60° |
| 2026-04-22 10:54 | 1.26093 | 11.52063 | 33833 ft | 465 kts | 61° |
| 2026-04-22 10:55 | 1.27432 | 11.54985 | 34051 ft | 462 kts | 72° |
| 2026-04-22 10:55 | 1.28527 | 11.58007 | 34241 ft | 462 kts | 70° |
| 2026-04-22 10:55 | 1.29651 | 11.61016 | 34427 ft | 462 kts | 70° |
| 2026-04-22 10:55 | 1.30767 | 11.64028 | 34636 ft | 462 kts | 70° |
| 2026-04-22 10:56 | 1.31877 | 11.67035 | 34824 ft | 462 kts | 70° |
| 2026-04-22 10:56 | 1.34101 | 11.73058 | 34919 ft | 461 kts | 70° |
| 2026-04-22 10:57 | 1.36317 | 11.79062 | 34926 ft | 460 kts | 70° |
| 2026-04-22 10:57 | 1.38518 | 11.85025 | 34924 ft | 461 kts | 70° |
| 2026-04-22 10:58 | 1.40735 | 11.91033 | 34926 ft | 461 kts | 70° |
| 2026-04-22 10:58 | 1.42953 | 11.97042 | 34923 ft | 461 kts | 70° |
| 2026-04-22 10:59 | 1.45172 | 12.03055 | 34925 ft | 461 kts | 71° |
| 2026-04-22 10:59 | 1.47391 | 12.09071 | 34920 ft | 461 kts | 71° |
| 2026-04-22 11:00 | 1.49611 | 12.15086 | 34923 ft | 462 kts | 71° |
| 2026-04-22 11:00 | 1.51830 | 12.21103 | 34924 ft | 461 kts | 70° |
| 2026-04-22 11:01 | 1.54046 | 12.27110 | 34919 ft | 461 kts | 70° |
| 2026-04-22 11:01 | 1.56260 | 12.33113 | 34921 ft | 460 kts | 70° |
| 2026-04-22 11:02 | 1.58473 | 12.39110 | 34918 ft | 460 kts | 70° |
| 2026-04-22 11:02 | 1.60684 | 12.45105 | 34916 ft | 459 kts | 70° |
| 2026-04-22 11:03 | 1.62898 | 12.51090 | 34932 ft | 459 kts | 70° |
| 2026-04-22 11:03 | 1.65099 | 12.57072 | 34916 ft | 458 kts | 70° |
| 2026-04-22 11:04 | 1.67303 | 12.63054 | 34917 ft | 458 kts | 70° |
| 2026-04-22 11:04 | 1.69492 | 12.68992 | 34911 ft | 458 kts | 70° |
| 2026-04-22 11:05 | 1.71695 | 12.74967 | 34912 ft | 458 kts | 70° |
| 2026-04-22 11:05 | 1.73897 | 12.80941 | 34912 ft | 458 kts | 70° |
| 2026-04-22 11:06 | 1.76097 | 12.86910 | 34909 ft | 458 kts | 70° |
| 2026-04-22 11:06 | 1.78298 | 12.92883 | 34910 ft | 458 kts | 70° |
| 2026-04-22 11:07 | 1.80497 | 12.98851 | 34904 ft | 458 kts | 70° |
| 2026-04-22 11:07 | 1.82696 | 13.04818 | 34910 ft | 458 kts | 70° |
| 2026-04-22 11:08 | 1.84897 | 13.10793 | 34906 ft | 458 kts | 70° |
| 2026-04-22 11:08 | 1.87097 | 13.16767 | 34909 ft | 458 kts | 70° |
| 2026-04-22 11:09 | 1.89296 | 13.22736 | 34900 ft | 458 kts | 70° |
| 2026-04-22 11:09 | 1.91497 | 13.28714 | 34905 ft | 458 kts | 70° |
| 2026-04-22 11:10 | 1.93695 | 13.34680 | 34904 ft | 458 kts | 70° |
| 2026-04-22 11:10 | 1.95894 | 13.40654 | 34904 ft | 458 kts | 70° |
| 2026-04-22 11:11 | 1.98093 | 13.46626 | 34899 ft | 458 kts | 70° |
| 2026-04-22 11:11 | 2.00292 | 13.52602 | 34899 ft | 458 kts | 70° |
| 2026-04-22 11:12 | 2.02488 | 13.58569 | 34901 ft | 458 kts | 70° |
| 2026-04-22 11:12 | 2.04685 | 13.64539 | 34901 ft | 458 kts | 70° |
| 2026-04-22 11:13 | 2.06882 | 13.70511 | 34900 ft | 457 kts | 70° |
| 2026-04-22 11:13 | 2.09078 | 13.76472 | 34895 ft | 457 kts | 69° |
| 2026-04-22 11:14 | 2.11281 | 13.82443 | 34893 ft | 457 kts | 70° |
| 2026-04-22 11:14 | 2.13469 | 13.88414 | 34899 ft | 457 kts | 70° |
| 2026-04-22 11:15 | 2.15662 | 13.94380 | 34898 ft | 457 kts | 70° |
| 2026-04-22 11:15 | 2.17847 | 14.00344 | 34894 ft | 456 kts | 70° |
| 2026-04-22 11:16 | 2.20040 | 14.06300 | 34890 ft | 457 kts | 69° |
| 2026-04-22 11:16 | 2.22238 | 14.12264 | 34885 ft | 457 kts | 70° |
| 2026-04-22 11:17 | 2.24427 | 14.18220 | 34886 ft | 457 kts | 69° |
| 2026-04-22 11:17 | 2.26617 | 14.24179 | 34889 ft | 456 kts | 69° |
| 2026-04-22 11:18 | 2.28805 | 14.30135 | 34883 ft | 456 kts | 69° |
| 2026-04-22 11:18 | 2.30995 | 14.36096 | 34883 ft | 457 kts | 69° |
| 2026-04-22 11:19 | 2.33170 | 14.42014 | 34882 ft | 457 kts | 69° |
| 2026-04-22 11:19 | 2.35359 | 14.47973 | 34880 ft | 457 kts | 69° |
| 2026-04-22 11:20 | 2.37549 | 14.53936 | 34879 ft | 457 kts | 69° |
| 2026-04-22 11:20 | 2.39751 | 14.59933 | 34877 ft | 456 kts | 69° |
| 2026-04-22 11:21 | 2.41922 | 14.65853 | 34874 ft | 456 kts | 69° |
| 2026-04-22 11:21 | 2.44123 | 14.71853 | 34865 ft | 456 kts | 69° |
| 2026-04-22 11:22 | 2.46287 | 14.77772 | 34869 ft | 456 kts | 69° |
| 2026-04-22 11:22 | 2.48486 | 14.83729 | 34862 ft | 457 kts | 69° |
| 2026-04-22 11:23 | 2.50675 | 14.89694 | 34866 ft | 457 kts | 69° |
| 2026-04-22 11:23 | 2.52861 | 14.95657 | 34843 ft | 459 kts | 68° |
| 2026-04-22 11:24 | 2.55069 | 15.01673 | 34847 ft | 461 kts | 68° |
| 2026-04-22 11:24 | 2.57278 | 15.07696 | 34846 ft | 461 kts | 68° |
| 2026-04-22 11:25 | 2.59488 | 15.13721 | 34849 ft | 461 kts | 68° |
| 2026-04-22 11:25 | 2.61696 | 15.19744 | 34842 ft | 461 kts | 68° |
| 2026-04-22 11:26 | 2.63905 | 15.25769 | 34847 ft | 461 kts | 68° |
| 2026-04-22 11:26 | 2.66113 | 15.31795 | 34843 ft | 462 kts | 68° |
| 2026-04-22 11:27 | 2.68325 | 15.37829 | 34840 ft | 462 kts | 68° |
| 2026-04-22 11:27 | 2.70532 | 15.43854 | 34849 ft | 462 kts | 68° |
| 2026-04-22 11:28 | 2.72743 | 15.49889 | 34844 ft | 462 kts | 68° |
| 2026-04-22 11:28 | 2.74952 | 15.55919 | 34846 ft | 462 kts | 68° |
| 2026-04-22 11:29 | 2.76788 | 15.60933 | 34847 ft | 462 kts | 68° |
| 2026-04-22 11:29 | 2.79357 | 15.67950 | 34845 ft | 462 kts | 68° |
| 2026-04-22 11:30 | 2.81947 | 15.73790 | 34849 ft | 458 kts | 58° |
| 2026-04-22 11:30 | 2.85066 | 15.79369 | 34844 ft | 460 kts | 58° |
| 2026-04-22 11:31 | 2.88195 | 15.84951 | 34838 ft | 459 kts | 58° |
| 2026-04-22 11:31 | 2.90813 | 15.89622 | 34840 ft | 459 kts | 58° |
| 2026-04-22 11:32 | 2.93937 | 15.95194 | 34837 ft | 459 kts | 58° |
| 2026-04-22 11:32 | 2.97059 | 16.00764 | 34840 ft | 459 kts | 58° |
| 2026-04-22 11:33 | 3.00183 | 16.06339 | 34841 ft | 459 kts | 58° |
| 2026-04-22 11:33 | 3.03306 | 16.11911 | 34839 ft | 459 kts | 58° |
| 2026-04-22 11:34 | 3.06427 | 16.17482 | 34837 ft | 459 kts | 58° |
| 2026-04-22 11:34 | 3.09550 | 16.23056 | 34836 ft | 459 kts | 58° |
| 2026-04-22 11:35 | 3.12669 | 16.28625 | 34840 ft | 459 kts | 58° |
| 2026-04-22 11:35 | 3.15787 | 16.34194 | 34844 ft | 459 kts | 58° |
| 2026-04-22 11:36 | 3.18885 | 16.39726 | 34841 ft | 459 kts | 58° |
| 2026-04-22 11:36 | 3.22005 | 16.45299 | 34838 ft | 459 kts | 58° |
| 2026-04-22 11:37 | 3.25123 | 16.50870 | 34834 ft | 459 kts | 58° |
| 2026-04-22 11:37 | 3.28242 | 16.56443 | 34838 ft | 459 kts | 58° |
| 2026-04-22 11:38 | 3.31360 | 16.62016 | 34833 ft | 459 kts | 58° |
| 2026-04-22 11:38 | 3.36041 | 16.70382 | 34843 ft | 459 kts | 58° |
| 2026-04-22 11:39 | 3.39157 | 16.75953 | 34835 ft | 459 kts | 58° |
| 2026-04-22 11:39 | 3.42275 | 16.81528 | 34835 ft | 459 kts | 58° |
| 2026-04-22 11:40 | 3.45391 | 16.87102 | 34838 ft | 459 kts | 58° |
| 2026-04-22 11:40 | 3.48507 | 16.92676 | 34836 ft | 459 kts | 58° |
| 2026-04-22 11:41 | 3.51623 | 16.98250 | 34840 ft | 459 kts | 58° |
| 2026-04-22 11:41 | 3.54737 | 17.03821 | 34836 ft | 458 kts | 58° |
| 2026-04-22 11:42 | 3.57849 | 17.09391 | 34835 ft | 458 kts | 58° |
| 2026-04-22 11:42 | 3.60960 | 17.14961 | 34833 ft | 458 kts | 58° |
| 2026-04-22 11:43 | 3.64070 | 17.20528 | 34834 ft | 458 kts | 58° |
| 2026-04-22 11:43 | 3.67181 | 17.26098 | 34833 ft | 458 kts | 58° |
| 2026-04-22 11:44 | 3.70273 | 17.31631 | 34837 ft | 458 kts | 58° |
| 2026-04-22 11:44 | 3.73408 | 17.37229 | 34829 ft | 458 kts | 58° |
| 2026-04-22 11:45 | 3.76523 | 17.42791 | 34834 ft | 458 kts | 58° |
| 2026-04-22 11:45 | 3.79617 | 17.48318 | 34830 ft | 458 kts | 58° |
| 2026-04-22 11:46 | 3.82730 | 17.53879 | 34835 ft | 458 kts | 58° |
| 2026-04-22 11:46 | 3.85841 | 17.59438 | 34832 ft | 458 kts | 58° |
| 2026-04-22 11:47 | 3.88952 | 17.64997 | 34835 ft | 457 kts | 58° |
| 2026-04-22 11:47 | 3.92063 | 17.70557 | 34834 ft | 458 kts | 58° |
| 2026-04-22 11:48 | 3.95172 | 17.76116 | 34833 ft | 458 kts | 58° |
| 2026-04-22 11:48 | 3.98286 | 17.81685 | 34836 ft | 458 kts | 58° |
| 2026-04-22 11:49 | 4.01399 | 17.87251 | 34836 ft | 458 kts | 58° |
| 2026-04-22 11:49 | 4.04513 | 17.92823 | 34836 ft | 459 kts | 58° |
| 2026-04-22 11:50 | 4.07632 | 17.98403 | 34836 ft | 459 kts | 58° |
| 2026-04-22 11:50 | 4.10750 | 18.03983 | 34834 ft | 459 kts | 58° |
| 2026-04-22 11:51 | 4.13873 | 18.09573 | 34837 ft | 460 kts | 58° |
| 2026-04-22 11:51 | 4.16992 | 18.15156 | 34834 ft | 460 kts | 58° |
| 2026-04-22 11:52 | 4.20115 | 18.20749 | 34835 ft | 460 kts | 58° |
| 2026-04-22 11:52 | 4.23235 | 18.26336 | 34840 ft | 460 kts | 59° |
| 2026-04-22 11:53 | 4.26358 | 18.31931 | 34845 ft | 460 kts | 58° |
| 2026-04-22 11:53 | 4.29476 | 18.37518 | 34847 ft | 460 kts | 59° |
| 2026-04-22 11:54 | 4.32598 | 18.43113 | 34853 ft | 460 kts | 58° |
| 2026-04-22 11:54 | 4.35723 | 18.48714 | 34855 ft | 460 kts | 59° |
| 2026-04-22 11:55 | 4.38266 | 18.54576 | 34858 ft | 463 kts | 75° |
| 2026-04-22 11:55 | 4.39826 | 18.60813 | 34858 ft | 465 kts | 74° |
| 2026-04-22 11:56 | 4.41365 | 18.67109 | 34850 ft | 465 kts | 74° |
| 2026-04-22 11:56 | 4.42900 | 18.73453 | 34850 ft | 465 kts | 74° |
| 2026-04-22 11:57 | 4.44434 | 18.79705 | 34847 ft | 466 kts | 74° |
| 2026-04-22 11:57 | 4.46006 | 18.86007 | 34842 ft | 466 kts | 74° |
| 2026-04-22 11:58 | 4.47572 | 18.92297 | 34841 ft | 466 kts | 74° |
| 2026-04-22 11:58 | 4.49139 | 18.98595 | 34837 ft | 466 kts | 74° |
| 2026-04-22 11:59 | 4.50706 | 19.04893 | 34839 ft | 465 kts | 74° |
| 2026-04-22 11:59 | 4.52270 | 19.11187 | 34841 ft | 466 kts | 74° |
| 2026-04-22 12:00 | 4.53836 | 19.17486 | 34836 ft | 466 kts | 74° |
| 2026-04-22 12:00 | 4.55403 | 19.23792 | 34837 ft | 466 kts | 74° |
| 2026-04-22 12:01 | 4.56967 | 19.30092 | 34839 ft | 466 kts | 74° |
| 2026-04-22 12:01 | 4.58532 | 19.36397 | 34835 ft | 466 kts | 74° |
| 2026-04-22 12:02 | 4.60097 | 19.42700 | 34832 ft | 466 kts | 74° |
| 2026-04-22 12:02 | 4.61659 | 19.48998 | 34829 ft | 466 kts | 74° |
| 2026-04-22 12:03 | 4.63222 | 19.55305 | 34831 ft | 466 kts | 74° |
| 2026-04-22 12:03 | 4.64785 | 19.61608 | 34833 ft | 466 kts | 74° |
| 2026-04-22 12:04 | 4.66346 | 19.67910 | 34827 ft | 466 kts | 74° |
| 2026-04-22 12:04 | 4.67905 | 19.74204 | 34822 ft | 465 kts | 74° |
| 2026-04-22 12:05 | 4.69464 | 19.80505 | 34823 ft | 465 kts | 74° |
| 2026-04-22 12:05 | 4.71012 | 19.86759 | 34819 ft | 465 kts | 74° |
| 2026-04-22 12:06 | 4.72567 | 19.93047 | 34813 ft | 465 kts | 74° |
| 2026-04-22 12:06 | 4.74123 | 19.99340 | 34814 ft | 465 kts | 74° |
| 2026-04-22 12:07 | 4.75679 | 20.05634 | 34814 ft | 465 kts | 74° |
| 2026-04-22 12:07 | 4.77232 | 20.11923 | 34813 ft | 465 kts | 74° |
| 2026-04-22 12:08 | 4.78785 | 20.18211 | 34810 ft | 465 kts | 74° |
| 2026-04-22 12:08 | 4.80337 | 20.24497 | 34811 ft | 465 kts | 74° |
| 2026-04-22 12:09 | 4.81890 | 20.30786 | 34813 ft | 464 kts | 74° |
| 2026-04-22 12:09 | 4.83440 | 20.37068 | 34814 ft | 464 kts | 74° |
| 2026-04-22 12:10 | 4.84991 | 20.43357 | 34810 ft | 464 kts | 74° |
| 2026-04-22 12:10 | 4.86540 | 20.49640 | 34809 ft | 465 kts | 74° |
| 2026-04-22 12:11 | 4.88091 | 20.55931 | 34812 ft | 465 kts | 74° |
| 2026-04-22 12:11 | 4.89641 | 20.62219 | 34806 ft | 465 kts | 74° |
| 2026-04-22 12:12 | 4.91180 | 20.68468 | 34803 ft | 465 kts | 74° |
| 2026-04-22 12:12 | 4.92729 | 20.74764 | 34809 ft | 465 kts | 74° |
| 2026-04-22 12:13 | 4.94279 | 20.81060 | 34805 ft | 465 kts | 74° |
| 2026-04-22 12:13 | 4.95827 | 20.87355 | 34804 ft | 465 kts | 74° |
| 2026-04-22 12:14 | 4.97376 | 20.93657 | 34802 ft | 466 kts | 74° |
| 2026-04-22 12:14 | 4.98925 | 20.99959 | 34794 ft | 465 kts | 74° |
| 2026-04-22 12:15 | 5.00473 | 21.06261 | 34794 ft | 466 kts | 74° |
| 2026-04-22 12:15 | 5.02021 | 21.12566 | 34798 ft | 465 kts | 74° |
| 2026-04-22 12:16 | 5.03568 | 21.18869 | 34791 ft | 465 kts | 74° |
| 2026-04-22 12:16 | 5.05113 | 21.25168 | 34792 ft | 465 kts | 74° |
| 2026-04-22 12:17 | 5.06656 | 21.31457 | 34789 ft | 464 kts | 74° |
| 2026-04-22 12:17 | 5.08197 | 21.37746 | 34791 ft | 464 kts | 74° |
| 2026-04-22 12:18 | 5.09737 | 21.44032 | 34792 ft | 464 kts | 74° |
| 2026-04-22 12:18 | 5.11265 | 21.50271 | 34790 ft | 464 kts | 74° |
| 2026-04-22 12:19 | 5.12801 | 21.56546 | 34791 ft | 463 kts | 75° |
| 2026-04-22 12:19 | 5.14336 | 21.62817 | 34789 ft | 463 kts | 75° |
| 2026-04-22 12:20 | 5.15621 | 21.68069 | 34792 ft | 462 kts | 75° |
| 2026-04-22 12:20 | 5.17153 | 21.74333 | 34791 ft | 462 kts | 75° |
| 2026-04-22 12:21 | 5.18671 | 21.80548 | 34791 ft | 462 kts | 75° |
| 2026-04-22 12:21 | 5.20201 | 21.86807 | 34790 ft | 462 kts | 75° |
| 2026-04-22 12:22 | 5.21728 | 21.93061 | 34793 ft | 462 kts | 75° |
| 2026-04-22 12:22 | 5.23255 | 21.99317 | 34787 ft | 462 kts | 75° |
| 2026-04-22 12:23 | 5.24783 | 22.05580 | 34786 ft | 462 kts | 75° |
| 2026-04-22 12:23 | 5.26309 | 22.11841 | 34786 ft | 462 kts | 75° |
| 2026-04-22 12:24 | 5.27836 | 22.18103 | 34789 ft | 462 kts | 75° |
| 2026-04-22 12:24 | 5.29361 | 22.24363 | 34786 ft | 462 kts | 75° |
| 2026-04-22 12:25 | 5.30886 | 22.30628 | 34783 ft | 462 kts | 75° |
| 2026-04-22 12:25 | 5.32413 | 22.36899 | 34786 ft | 462 kts | 75° |
| 2026-04-22 12:26 | 5.33937 | 22.43164 | 34789 ft | 462 kts | 75° |
| 2026-04-22 12:26 | 5.35461 | 22.49431 | 34788 ft | 462 kts | 75° |
| 2026-04-22 12:27 | 5.36986 | 22.55707 | 34787 ft | 463 kts | 75° |
| 2026-04-22 12:27 | 5.38510 | 22.61978 | 34786 ft | 463 kts | 75° |
| 2026-04-22 12:28 | 5.40033 | 22.68252 | 34792 ft | 463 kts | 75° |
| 2026-04-22 12:28 | 5.41556 | 22.74527 | 34788 ft | 463 kts | 75° |
| 2026-04-22 12:29 | 5.43079 | 22.80804 | 34787 ft | 463 kts | 75° |
| 2026-04-22 12:29 | 5.44601 | 22.87079 | 34786 ft | 463 kts | 75° |
| 2026-04-22 12:30 | 5.46869 | 22.96439 | 34797 ft | 462 kts | 75° |
| 2026-04-22 12:31 | 5.48385 | 23.02698 | 34786 ft | 461 kts | 75° |
| 2026-04-22 12:31 | 5.49899 | 23.08954 | 34789 ft | 461 kts | 75° |
| 2026-04-22 12:32 | 5.51410 | 23.15196 | 34789 ft | 460 kts | 76° |
| 2026-04-22 12:32 | 5.53672 | 23.24546 | 34788 ft | 459 kts | 76° |
| 2026-04-22 12:33 | 5.55176 | 23.30772 | 34786 ft | 459 kts | 76° |
| 2026-04-22 12:33 | 5.56681 | 23.37003 | 34783 ft | 459 kts | 76° |
| 2026-04-22 12:34 | 5.58186 | 23.43236 | 34782 ft | 459 kts | 76° |
| 2026-04-22 12:34 | 5.59688 | 23.49462 | 34784 ft | 459 kts | 76° |
| 2026-04-22 12:35 | 5.61190 | 23.55689 | 34783 ft | 459 kts | 76° |
| 2026-04-22 12:35 | 5.62682 | 23.61919 | 34794 ft | 458 kts | 76° |
| 2026-04-22 12:36 | 5.64190 | 23.68142 | 34779 ft | 459 kts | 76° |
| 2026-04-22 12:36 | 5.65692 | 23.74372 | 34778 ft | 459 kts | 76° |
| 2026-04-22 12:37 | 5.67192 | 23.80603 | 34782 ft | 459 kts | 76° |
| 2026-04-22 12:37 | 5.68689 | 23.86826 | 34776 ft | 459 kts | 76° |
| 2026-04-22 12:38 | 5.70188 | 23.93060 | 34778 ft | 459 kts | 76° |
| 2026-04-22 12:38 | 5.71687 | 23.99295 | 34777 ft | 459 kts | 76° |
| 2026-04-22 12:39 | 5.73933 | 24.08647 | 34776 ft | 460 kts | 76° |
| 2026-04-22 12:40 | 5.75432 | 24.14888 | 34772 ft | 460 kts | 76° |
| 2026-04-22 12:40 | 5.76919 | 24.21088 | 34774 ft | 460 kts | 76° |
| 2026-04-22 12:41 | 5.78415 | 24.27326 | 34780 ft | 460 kts | 76° |
| 2026-04-22 12:41 | 5.79911 | 24.33568 | 34775 ft | 460 kts | 76° |
| 2026-04-22 12:42 | 5.81407 | 24.39811 | 34777 ft | 460 kts | 76° |
| 2026-04-22 12:42 | 5.82903 | 24.46059 | 34776 ft | 460 kts | 76° |
| 2026-04-22 12:43 | 5.84401 | 24.52319 | 34779 ft | 461 kts | 76° |
| 2026-04-22 12:43 | 5.85897 | 24.58575 | 34779 ft | 461 kts | 76° |
| 2026-04-22 12:44 | 5.87398 | 24.64853 | 34782 ft | 462 kts | 76° |
| 2026-04-22 12:44 | 5.88896 | 24.71122 | 34779 ft | 462 kts | 76° |
| 2026-04-22 12:45 | 5.90397 | 24.77407 | 34778 ft | 463 kts | 76° |
| 2026-04-22 12:45 | 5.91898 | 24.83695 | 34781 ft | 463 kts | 76° |
| 2026-04-22 12:46 | 5.93401 | 24.89993 | 34782 ft | 464 kts | 76° |
| 2026-04-22 12:46 | 5.94904 | 24.96300 | 34786 ft | 464 kts | 76° |
| 2026-04-22 12:47 | 5.96408 | 25.02610 | 34787 ft | 465 kts | 76° |
| 2026-04-22 12:47 | 5.97912 | 25.08923 | 34786 ft | 465 kts | 76° |
| 2026-04-22 12:48 | 5.99415 | 25.15236 | 34785 ft | 465 kts | 76° |
| 2026-04-22 12:48 | 6.00918 | 25.21549 | 34788 ft | 465 kts | 76° |
| 2026-04-22 12:49 | 6.02421 | 25.27870 | 34791 ft | 465 kts | 76° |
| 2026-04-22 12:49 | 6.03922 | 25.34188 | 34790 ft | 465 kts | 76° |
| 2026-04-22 12:50 | 6.05424 | 25.40509 | 34789 ft | 465 kts | 76° |
| 2026-04-22 12:50 | 6.06925 | 25.46832 | 34787 ft | 465 kts | 76° |
| 2026-04-22 12:51 | 6.08416 | 25.53115 | 34785 ft | 465 kts | 76° |
| 2026-04-22 12:51 | 6.09915 | 25.59438 | 34790 ft | 465 kts | 76° |
| 2026-04-22 12:52 | 6.11415 | 25.65764 | 34789 ft | 466 kts | 76° |
| 2026-04-22 12:52 | 6.12914 | 25.72094 | 34788 ft | 466 kts | 76° |
| 2026-04-22 12:53 | 6.14413 | 25.78426 | 34788 ft | 466 kts | 76° |
| 2026-04-22 12:53 | 6.15914 | 25.84767 | 34787 ft | 466 kts | 76° |
| 2026-04-22 12:54 | 6.17412 | 25.91101 | 34787 ft | 466 kts | 76° |
| 2026-04-22 12:54 | 6.18911 | 25.97443 | 34786 ft | 467 kts | 76° |
| 2026-04-22 12:55 | 6.20411 | 26.03792 | 34784 ft | 467 kts | 76° |
| 2026-04-22 12:55 | 6.21912 | 26.10148 | 34780 ft | 468 kts | 76° |
| 2026-04-22 12:56 | 6.23413 | 26.16507 | 34783 ft | 468 kts | 76° |
| 2026-04-22 12:56 | 6.24914 | 26.22872 | 34781 ft | 468 kts | 76° |
| 2026-04-22 12:57 | 6.26414 | 26.29238 | 34780 ft | 468 kts | 76° |
| 2026-04-22 12:57 | 6.27916 | 26.35611 | 34778 ft | 469 kts | 76° |
| 2026-04-22 12:58 | 6.29417 | 26.41987 | 34777 ft | 469 kts | 76° |
| 2026-04-22 12:58 | 6.30918 | 26.48366 | 34775 ft | 469 kts | 76° |
| 2026-04-22 12:59 | 6.32408 | 26.54744 | 34773 ft | 469 kts | 77° |
| 2026-04-22 12:59 | 6.33912 | 26.61115 | 34767 ft | 469 kts | 76° |
| 2026-04-22 13:00 | 6.35413 | 26.67499 | 34766 ft | 469 kts | 76° |
| 2026-04-22 13:00 | 6.36901 | 26.73840 | 34764 ft | 469 kts | 76° |
| 2026-04-22 13:01 | 6.38410 | 26.80274 | 34763 ft | 469 kts | 76° |
| 2026-04-22 13:01 | 6.39907 | 26.86659 | 34760 ft | 470 kts | 76° |
| 2026-04-22 13:02 | 6.41395 | 26.93008 | 34756 ft | 470 kts | 76° |
| 2026-04-22 13:02 | 6.42894 | 26.99413 | 34759 ft | 470 kts | 76° |
| 2026-04-22 13:03 | 6.44391 | 27.05811 | 34756 ft | 471 kts | 76° |
| 2026-04-22 13:03 | 6.45891 | 27.12223 | 34757 ft | 471 kts | 76° |
| 2026-04-22 13:04 | 6.47388 | 27.18625 | 34757 ft | 471 kts | 76° |
| 2026-04-22 13:04 | 6.48885 | 27.25035 | 34755 ft | 471 kts | 76° |
| 2026-04-22 13:05 | 6.50381 | 27.31444 | 34755 ft | 471 kts | 76° |
| 2026-04-22 13:05 | 6.51879 | 27.37864 | 34751 ft | 471 kts | 76° |
| 2026-04-22 13:06 | 6.53374 | 27.44275 | 34750 ft | 471 kts | 76° |
| 2026-04-22 13:06 | 6.54869 | 27.50690 | 34749 ft | 471 kts | 76° |
| 2026-04-22 13:07 | 6.56364 | 27.57107 | 34744 ft | 471 kts | 76° |
| 2026-04-22 13:07 | 6.57847 | 27.63482 | 34745 ft | 471 kts | 76° |
| 2026-04-22 13:08 | 6.59351 | 27.69946 | 34746 ft | 472 kts | 76° |
| 2026-04-22 13:08 | 6.60835 | 27.76329 | 34746 ft | 472 kts | 76° |
| 2026-04-22 13:09 | 6.62329 | 27.82760 | 34742 ft | 472 kts | 76° |
| 2026-04-22 13:09 | 6.63579 | 27.88144 | 34743 ft | 472 kts | 76° |
| 2026-04-22 13:10 | 6.65069 | 27.94565 | 34743 ft | 472 kts | 76° |
| 2026-04-22 13:10 | 6.66560 | 28.00995 | 34746 ft | 472 kts | 76° |
| 2026-04-22 13:11 | 6.68051 | 28.07423 | 34742 ft | 472 kts | 76° |
| 2026-04-22 13:11 | 6.69539 | 28.13851 | 34741 ft | 472 kts | 76° |
| 2026-04-22 13:12 | 6.71029 | 28.20288 | 34745 ft | 473 kts | 76° |
| 2026-04-22 13:12 | 6.72520 | 28.26731 | 34743 ft | 473 kts | 76° |
| 2026-04-22 13:13 | 6.74010 | 28.33177 | 34742 ft | 474 kts | 76° |
| 2026-04-22 13:13 | 6.75502 | 28.39632 | 34745 ft | 474 kts | 76° |
| 2026-04-22 13:14 | 6.76887 | 28.46078 | 34762 ft | 474 kts | 75° |
| 2026-04-22 13:14 | 6.78469 | 28.52524 | 34757 ft | 474 kts | 75° |
| 2026-04-22 13:15 | 6.79965 | 28.58998 | 34748 ft | 475 kts | 76° |
| 2026-04-22 13:15 | 6.81459 | 28.65483 | 34748 ft | 477 kts | 76° |
| 2026-04-22 13:16 | 6.82960 | 28.71972 | 34756 ft | 476 kts | 76° |
| 2026-04-22 13:16 | 6.84450 | 28.78472 | 34738 ft | 477 kts | 76° |
| 2026-04-22 13:17 | 6.85951 | 28.84962 | 34755 ft | 476 kts | 76° |
| 2026-04-22 13:17 | 6.87442 | 28.91455 | 34759 ft | 476 kts | 76° |
| 2026-04-22 13:18 | 6.88930 | 28.97935 | 34758 ft | 476 kts | 76° |
| 2026-04-22 13:18 | 6.90420 | 29.04424 | 34759 ft | 475 kts | 76° |
| 2026-04-22 13:19 | 6.91906 | 29.10901 | 34758 ft | 475 kts | 76° |
| 2026-04-22 13:19 | 6.93390 | 29.17375 | 34761 ft | 475 kts | 76° |
| 2026-04-22 13:20 | 6.94873 | 29.23848 | 34755 ft | 474 kts | 76° |
| 2026-04-22 13:20 | 6.96355 | 29.30320 | 34752 ft | 474 kts | 76° |
| 2026-04-22 13:21 | 6.97836 | 29.36792 | 34753 ft | 474 kts | 76° |
| 2026-04-22 13:21 | 6.99316 | 29.43264 | 34751 ft | 475 kts | 76° |
| 2026-04-22 13:22 | 7.00787 | 29.49699 | 34749 ft | 474 kts | 76° |
| 2026-04-22 13:22 | 7.02265 | 29.56167 | 34750 ft | 474 kts | 76° |
| 2026-04-22 13:23 | 7.03743 | 29.62643 | 34748 ft | 474 kts | 76° |
| 2026-04-22 13:23 | 7.05218 | 29.69109 | 34748 ft | 474 kts | 76° |
| 2026-04-22 13:24 | 7.06694 | 29.75583 | 34746 ft | 474 kts | 76° |
| 2026-04-22 13:24 | 7.08167 | 29.82055 | 34739 ft | 474 kts | 76° |
| 2026-04-22 13:25 | 7.09638 | 29.88518 | 34742 ft | 474 kts | 76° |
| 2026-04-22 13:25 | 7.11110 | 29.94990 | 34738 ft | 474 kts | 76° |
| 2026-04-22 13:26 | 7.12581 | 30.01462 | 34737 ft | 474 kts | 76° |
| 2026-04-22 13:26 | 7.14051 | 30.07931 | 34736 ft | 474 kts | 76° |
| 2026-04-22 13:27 | 7.15519 | 30.14398 | 34731 ft | 474 kts | 76° |
| 2026-04-22 13:27 | 7.16985 | 30.20861 | 34733 ft | 474 kts | 76° |
| 2026-04-22 13:28 | 7.18451 | 30.27328 | 34731 ft | 474 kts | 76° |
| 2026-04-22 13:28 | 7.19917 | 30.33796 | 34729 ft | 474 kts | 75° |
| 2026-04-22 13:29 | 7.21380 | 30.40260 | 34727 ft | 473 kts | 75° |
| 2026-04-22 13:29 | 7.22843 | 30.46727 | 34725 ft | 473 kts | 75° |
| 2026-04-22 13:30 | 7.24296 | 30.53151 | 34722 ft | 473 kts | 75° |
| 2026-04-22 13:30 | 7.25756 | 30.59614 | 34722 ft | 473 kts | 75° |
| 2026-04-22 13:31 | 7.27216 | 30.66083 | 34724 ft | 474 kts | 75° |
| 2026-04-22 13:31 | 7.28677 | 30.72555 | 34720 ft | 473 kts | 75° |
| 2026-04-22 13:32 | 7.30134 | 30.79018 | 34721 ft | 473 kts | 75° |
| 2026-04-22 13:32 | 7.31592 | 30.85487 | 34731 ft | 474 kts | 75° |
| 2026-04-22 13:33 | 7.33047 | 30.91953 | 34723 ft | 473 kts | 76° |
| 2026-04-22 13:33 | 7.34501 | 30.98414 | 34719 ft | 474 kts | 76° |
| 2026-04-22 13:34 | 7.35957 | 31.04888 | 34715 ft | 474 kts | 76° |
| 2026-04-22 13:34 | 7.37411 | 31.11360 | 34720 ft | 474 kts | 76° |
| 2026-04-22 13:35 | 7.38865 | 31.17835 | 34714 ft | 474 kts | 76° |
| 2026-04-22 13:35 | 7.40315 | 31.24301 | 34711 ft | 474 kts | 76° |
| 2026-04-22 13:36 | 7.41767 | 31.30777 | 34715 ft | 474 kts | 76° |
| 2026-04-22 13:36 | 7.43218 | 31.37252 | 34716 ft | 474 kts | 76° |
| 2026-04-22 13:37 | 7.44668 | 31.43729 | 34711 ft | 474 kts | 76° |
| 2026-04-22 13:37 | 7.46118 | 31.50208 | 34709 ft | 474 kts | 76° |
| 2026-04-22 13:38 | 7.47566 | 31.56683 | 34712 ft | 474 kts | 76° |
| 2026-04-22 13:38 | 7.49735 | 31.66400 | 34714 ft | 474 kts | 76° |
| 2026-04-22 13:39 | 7.51181 | 31.72877 | 34712 ft | 474 kts | 76° |
| 2026-04-22 13:39 | 7.52625 | 31.79351 | 34712 ft | 474 kts | 76° |
| 2026-04-22 13:40 | 7.54068 | 31.85831 | 34714 ft | 474 kts | 76° |
| 2026-04-22 13:40 | 7.55511 | 31.92310 | 34713 ft | 474 kts | 76° |
| 2026-04-22 13:41 | 7.56951 | 31.98780 | 34707 ft | 473 kts | 76° |
| 2026-04-22 13:41 | 7.58391 | 32.05259 | 34706 ft | 473 kts | 76° |
| 2026-04-22 13:42 | 7.59820 | 32.11687 | 34710 ft | 473 kts | 76° |
| 2026-04-22 13:42 | 7.61257 | 32.18158 | 34708 ft | 473 kts | 76° |
| 2026-04-22 13:43 | 7.62692 | 32.24630 | 34706 ft | 473 kts | 76° |
| 2026-04-22 13:43 | 7.64127 | 32.31103 | 34708 ft | 473 kts | 76° |
| 2026-04-22 13:44 | 7.65560 | 32.37572 | 34707 ft | 473 kts | 76° |
| 2026-04-22 13:44 | 7.66993 | 32.44044 | 34707 ft | 473 kts | 76° |
| 2026-04-22 13:45 | 7.68424 | 32.50509 | 34705 ft | 473 kts | 76° |
| 2026-04-22 13:45 | 7.69851 | 32.56980 | 34704 ft | 473 kts | 76° |
| 2026-04-22 13:46 | 7.71277 | 32.63443 | 34701 ft | 472 kts | 76° |
| 2026-04-22 13:46 | 7.72701 | 32.69904 | 34700 ft | 472 kts | 76° |
| 2026-04-22 13:47 | 7.74123 | 32.76365 | 34702 ft | 472 kts | 76° |
| 2026-04-22 13:47 | 7.75545 | 32.82825 | 34699 ft | 472 kts | 76° |
| 2026-04-22 13:48 | 7.76964 | 32.89279 | 34698 ft | 471 kts | 76° |
| 2026-04-22 13:48 | 7.78382 | 32.95732 | 34700 ft | 471 kts | 76° |
| 2026-04-22 13:49 | 7.79799 | 33.02189 | 34698 ft | 471 kts | 76° |
| 2026-04-22 13:49 | 7.81216 | 33.08644 | 34701 ft | 471 kts | 76° |
| 2026-04-22 13:50 | 7.82621 | 33.15104 | 34699 ft | 471 kts | 76° |
| 2026-04-22 13:50 | 7.84012 | 33.21564 | 34697 ft | 471 kts | 76° |
| 2026-04-22 13:51 | 7.85393 | 33.27977 | 34699 ft | 472 kts | 76° |
| 2026-04-22 13:51 | 7.86785 | 33.34448 | 34700 ft | 472 kts | 76° |
| 2026-04-22 13:52 | 7.88175 | 33.40910 | 34701 ft | 472 kts | 76° |
| 2026-04-22 13:52 | 7.89564 | 33.47376 | 34701 ft | 472 kts | 76° |
| 2026-04-22 13:53 | 7.90954 | 33.53849 | 34703 ft | 472 kts | 76° |
| 2026-04-22 13:53 | 7.92341 | 33.60317 | 34704 ft | 472 kts | 76° |
| 2026-04-22 13:54 | 7.93730 | 33.66797 | 34702 ft | 472 kts | 77° |
| 2026-04-22 13:54 | 7.95118 | 33.73277 | 34704 ft | 473 kts | 77° |
| 2026-04-22 13:55 | 7.96505 | 33.79759 | 34705 ft | 473 kts | 77° |
| 2026-04-22 13:55 | 7.97891 | 33.86238 | 34705 ft | 473 kts | 77° |
| 2026-04-22 13:56 | 7.99278 | 33.92732 | 34704 ft | 473 kts | 77° |
| 2026-04-22 13:56 | 8.00664 | 33.99221 | 34709 ft | 473 kts | 77° |
| 2026-04-22 13:57 | 8.02049 | 34.05715 | 34712 ft | 474 kts | 77° |
| 2026-04-22 13:57 | 8.03433 | 34.12209 | 34714 ft | 474 kts | 77° |
| 2026-04-22 13:58 | 8.04818 | 34.18709 | 34715 ft | 474 kts | 77° |
| 2026-04-22 13:58 | 8.05968 | 34.24113 | 34711 ft | 474 kts | 77° |
| 2026-04-22 13:59 | 8.07360 | 34.30623 | 34721 ft | 474 kts | 77° |
| 2026-04-22 13:59 | 8.08754 | 34.37121 | 34726 ft | 474 kts | 77° |
| 2026-04-22 14:00 | 8.10149 | 34.43632 | 34729 ft | 474 kts | 77° |
| 2026-04-22 14:00 | 8.11542 | 34.50136 | 34739 ft | 474 kts | 77° |
| 2026-04-22 14:01 | 8.12935 | 34.56639 | 34747 ft | 474 kts | 77° |
| 2026-04-22 14:01 | 8.14355 | 34.63139 | 34755 ft | 475 kts | 76° |
| 2026-04-22 14:02 | 8.15779 | 34.69650 | 34769 ft | 475 kts | 77° |
| 2026-04-22 14:02 | 8.17207 | 34.76158 | 34775 ft | 475 kts | 76° |
| 2026-04-22 14:03 | 8.18620 | 34.82669 | 34801 ft | 476 kts | 77° |
| 2026-04-22 14:03 | 8.20052 | 34.89188 | 34814 ft | 475 kts | 77° |
| 2026-04-22 14:04 | 8.21488 | 34.95704 | 34820 ft | 476 kts | 77° |
| 2026-04-22 14:04 | 8.22925 | 35.02224 | 34829 ft | 476 kts | 77° |
| 2026-04-22 14:05 | 8.24366 | 35.08745 | 34838 ft | 476 kts | 76° |
| 2026-04-22 14:06 | 8.26530 | 35.18541 | 34848 ft | 477 kts | 77° |
| 2026-04-22 14:06 | 8.27979 | 35.25079 | 34851 ft | 478 kts | 76° |
| 2026-04-22 14:07 | 8.29438 | 35.31622 | 34865 ft | 478 kts | 77° |
| 2026-04-22 14:07 | 8.30904 | 35.38168 | 34866 ft | 478 kts | 76° |
| 2026-04-22 14:08 | 8.32371 | 35.44708 | 34872 ft | 478 kts | 76° |
| 2026-04-22 14:08 | 8.33845 | 35.51251 | 34872 ft | 477 kts | 76° |
| 2026-04-22 14:09 | 8.35310 | 35.57737 | 34877 ft | 476 kts | 76° |
| 2026-04-22 14:09 | 8.36785 | 35.64251 | 34885 ft | 476 kts | 76° |
| 2026-04-22 14:10 | 8.38260 | 35.70762 | 34896 ft | 475 kts | 76° |
| 2026-04-22 14:10 | 8.39730 | 35.77257 | 34888 ft | 475 kts | 76° |
| 2026-04-22 14:11 | 8.41204 | 35.83760 | 34893 ft | 474 kts | 76° |
| 2026-04-22 14:11 | 8.42679 | 35.90250 | 34897 ft | 474 kts | 76° |
| 2026-04-22 14:12 | 8.44153 | 35.96742 | 34892 ft | 474 kts | 76° |
| 2026-04-22 14:12 | 8.45626 | 36.03231 | 34887 ft | 474 kts | 76° |
| 2026-04-22 14:13 | 8.47089 | 36.09722 | 34887 ft | 474 kts | 76° |
| 2026-04-22 14:13 | 8.48540 | 36.16218 | 34884 ft | 474 kts | 76° |
| 2026-04-22 14:14 | 8.49977 | 36.22725 | 34875 ft | 474 kts | 76° |
| 2026-04-22 14:14 | 8.51401 | 36.29233 | 34866 ft | 475 kts | 76° |
| 2026-04-22 14:15 | 8.52818 | 36.35739 | 34862 ft | 475 kts | 76° |
| 2026-04-22 14:15 | 8.54230 | 36.42257 | 34849 ft | 475 kts | 76° |
| 2026-04-22 14:16 | 8.55630 | 36.48729 | 34838 ft | 475 kts | 76° |
| 2026-04-22 14:16 | 8.57032 | 36.55245 | 34833 ft | 475 kts | 76° |
| 2026-04-22 14:17 | 8.58432 | 36.61759 | 34828 ft | 475 kts | 76° |
| 2026-04-22 14:17 | 8.59833 | 36.68281 | 34826 ft | 475 kts | 76° |
| 2026-04-22 14:18 | 8.61234 | 36.74802 | 34821 ft | 475 kts | 76° |
| 2026-04-22 14:18 | 8.62635 | 36.81339 | 34822 ft | 476 kts | 76° |
| 2026-04-22 14:19 | 8.64034 | 36.87871 | 34758 ft | 473 kts | 76° |
| 2026-04-22 14:19 | 8.64723 | 36.91091 | 34321 ft | 468 kts | 76° |
| 2026-04-22 14:19 | 8.65404 | 36.94278 | 33673 ft | 459 kts | 76° |
| 2026-04-22 14:19 | 8.66071 | 36.97402 | 32976 ft | 451 kts | 76° |
| 2026-04-22 14:20 | 8.67385 | 37.03494 | 31654 ft | 437 kts | 76° |
| 2026-04-22 14:20 | 8.68033 | 37.06468 | 31000 ft | 431 kts | 76° |
| 2026-04-22 14:20 | 8.68693 | 37.09456 | 30347 ft | 441 kts | 76° |
| 2026-04-22 14:21 | 8.70796 | 37.15385 | 29528 ft | 450 kts | 69° |
| 2026-04-22 14:21 | 8.71855 | 37.18369 | 29781 ft | 452 kts | 69° |
| 2026-04-22 14:22 | 8.73927 | 37.24379 | 30422 ft | 455 kts | 70° |
| 2026-04-22 14:22 | 8.74954 | 37.27412 | 30571 ft | 456 kts | 70° |
| 2026-04-22 14:22 | 8.77035 | 37.33481 | 31069 ft | 460 kts | 70° |
| 2026-04-22 14:23 | 8.78073 | 37.36523 | 30845 ft | 457 kts | 70° |
| 2026-04-22 14:23 | 8.79106 | 37.39551 | 30616 ft | 455 kts | 70° |
| 2026-04-22 14:23 | 8.80136 | 37.42572 | 30390 ft | 454 kts | 70° |
| 2026-04-22 14:23 | 8.81163 | 37.45585 | 30165 ft | 453 kts | 70° |
| 2026-04-22 14:24 | 8.82187 | 37.48592 | 29936 ft | 452 kts | 70° |
| 2026-04-22 14:24 | 8.83208 | 37.51586 | 29675 ft | 451 kts | 70° |
| 2026-04-22 14:24 | 8.84227 | 37.54581 | 29410 ft | 450 kts | 70° |
| 2026-04-22 14:24 | 8.85242 | 37.57562 | 29142 ft | 448 kts | 70° |
| 2026-04-22 14:25 | 8.86255 | 37.60538 | 28914 ft | 446 kts | 70° |
| 2026-04-22 14:25 | 8.88266 | 37.66451 | 28273 ft | 438 kts | 70° |
| 2026-04-22 14:25 | 8.89247 | 37.69336 | 27571 ft | 430 kts | 70° |
| 2026-04-22 14:26 | 8.90217 | 37.72188 | 26799 ft | 425 kts | 70° |
| 2026-04-22 14:26 | 8.91160 | 37.74964 | 26025 ft | 422 kts | 70° |
| 2026-04-22 14:26 | 8.92109 | 37.77758 | 25261 ft | 418 kts | 70° |
| 2026-04-22 14:26 | 8.93049 | 37.80524 | 24521 ft | 414 kts | 71° |
| 2026-04-22 14:27 | 8.94184 | 37.83172 | 23786 ft | 409 kts | 57° |
| 2026-04-22 14:27 | 8.96039 | 37.85307 | 22996 ft | 404 kts | 37° |
| 2026-04-22 14:27 | 8.98445 | 37.86743 | 22172 ft | 400 kts | 22° |
| 2026-04-22 14:27 | 9.01079 | 37.87536 | 21472 ft | 396 kts | 9° |
| 2026-04-22 14:28 | 9.03838 | 37.87676 | 21432 ft | 398 kts | 359° |
| 2026-04-22 14:28 | 9.06602 | 37.87775 | 22013 ft | 396 kts | 6° |
| 2026-04-22 14:28 | 9.09294 | 37.88383 | 22439 ft | 400 kts | 23° |
| 2026-04-22 14:28 | 9.11694 | 37.89794 | 22899 ft | 402 kts | 36° |
| 2026-04-22 14:29 | 9.13994 | 37.91354 | 22852 ft | 392 kts | 29° |
| 2026-04-22 14:29 | 9.16328 | 37.92690 | 22809 ft | 378 kts | 30° |
| 2026-04-22 14:29 | 9.18575 | 37.93989 | 22754 ft | 365 kts | 30° |
| 2026-04-22 14:29 | 9.20750 | 37.95251 | 22603 ft | 356 kts | 30° |
| 2026-04-22 14:30 | 9.22830 | 37.96577 | 22242 ft | 353 kts | 41° |
| 2026-04-22 14:30 | 9.24530 | 37.98351 | 21874 ft | 350 kts | 47° |
| 2026-04-22 14:30 | 9.26189 | 38.00133 | 21571 ft | 346 kts | 47° |
| 2026-04-22 14:30 | 9.27817 | 38.01910 | 21239 ft | 343 kts | 50° |
| 2026-04-22 14:31 | 9.28985 | 38.03997 | 20887 ft | 343 kts | 76° |
| 2026-04-22 14:31 | 9.29182 | 38.06394 | 20786 ft | 346 kts | 91° |
| 2026-04-22 14:31 | 9.29091 | 38.08850 | 20305 ft | 351 kts | 92° |
| 2026-04-22 14:31 | 9.28990 | 38.11333 | 19824 ft | 354 kts | 92° |
| 2026-04-22 14:32 | 9.28892 | 38.13782 | 19816 ft | 345 kts | 92° |
| 2026-04-22 14:32 | 9.28795 | 38.16209 | 19806 ft | 345 kts | 92° |
| 2026-04-22 14:32 | 9.28691 | 38.18634 | 19799 ft | 342 kts | 94° |
| 2026-04-22 14:32 | 9.28471 | 38.20961 | 19736 ft | 331 kts | 96° |
| 2026-04-22 14:33 | 9.28256 | 38.23275 | 19693 ft | 322 kts | 95° |
| 2026-04-22 14:33 | 9.28053 | 38.25566 | 19612 ft | 334 kts | 95° |
| 2026-04-22 14:33 | 9.27849 | 38.27931 | 19545 ft | 340 kts | 95° |
| 2026-04-22 14:33 | 9.27643 | 38.30339 | 19475 ft | 344 kts | 95° |
| 2026-04-22 14:34 | 9.27438 | 38.32754 | 19423 ft | 345 kts | 95° |
| 2026-04-22 14:34 | 9.27232 | 38.35177 | 19368 ft | 346 kts | 95° |
| 2026-04-22 14:34 | 9.27026 | 38.37606 | 19319 ft | 346 kts | 95° |
| 2026-04-22 14:34 | 9.26822 | 38.39998 | 19269 ft | 346 kts | 95° |
| 2026-04-22 14:35 | 9.26616 | 38.42423 | 19223 ft | 346 kts | 95° |
| 2026-04-22 14:35 | 9.26409 | 38.44862 | 19185 ft | 346 kts | 95° |
| 2026-04-22 14:35 | 9.26278 | 38.46396 | 19158 ft | 346 kts | 95° |
| 2026-04-22 14:35 | 9.26068 | 38.48853 | 19117 ft | 346 kts | 95° |
| 2026-04-22 14:36 | 9.25862 | 38.51274 | 19083 ft | 346 kts | 95° |
| 2026-04-22 14:36 | 9.25655 | 38.53705 | 19044 ft | 346 kts | 95° |
| 2026-04-22 14:36 | 9.25448 | 38.56129 | 19009 ft | 346 kts | 95° |
| 2026-04-22 14:36 | 9.25241 | 38.58553 | 18981 ft | 346 kts | 95° |
| 2026-04-22 14:37 | 9.25033 | 38.60978 | 18942 ft | 346 kts | 95° |
| 2026-04-22 14:37 | 9.24826 | 38.63399 | 18756 ft | 345 kts | 95° |
| 2026-04-22 14:37 | 9.24619 | 38.65810 | 18485 ft | 343 kts | 95° |
| 2026-04-22 14:37 | 9.24413 | 38.68219 | 18171 ft | 342 kts | 95° |
| 2026-04-22 14:38 | 9.24208 | 38.70603 | 17808 ft | 339 kts | 95° |
| 2026-04-22 14:38 | 9.24005 | 38.72969 | 17472 ft | 336 kts | 95° |
| 2026-04-22 14:38 | 9.23653 | 38.75293 | 17148 ft | 333 kts | 102° |
| 2026-04-22 14:38 | 9.23158 | 38.77567 | 16837 ft | 329 kts | 102° |
| 2026-04-22 14:39 | 9.22658 | 38.79820 | 16518 ft | 326 kts | 102° |
| 2026-04-22 14:39 | 9.22164 | 38.82051 | 16204 ft | 323 kts | 102° |
| 2026-04-22 14:39 | 9.21670 | 38.84263 | 15903 ft | 321 kts | 102° |
| 2026-04-22 14:40 | 9.20848 | 38.87918 | 15327 ft | 320 kts | 102° |
| 2026-04-22 14:40 | 9.20186 | 38.90850 | 14897 ft | 319 kts | 102° |
| 2026-04-22 14:40 | 9.19691 | 38.93035 | 14569 ft | 318 kts | 102° |
| 2026-04-22 14:40 | 9.19197 | 38.95215 | 14249 ft | 317 kts | 102° |
| 2026-04-22 14:41 | 9.18703 | 38.97387 | 13937 ft | 316 kts | 102° |
| 2026-04-22 14:41 | 9.17889 | 38.99402 | 13807 ft | 307 kts | 127° |
| 2026-04-22 14:41 | 9.16300 | 39.00700 | 13773 ft | 286 kts | 156° |
| 2026-04-22 14:41 | 9.14495 | 39.01331 | 13798 ft | 263 kts | 162° |
| 2026-04-22 14:42 | 9.12795 | 39.01869 | 13886 ft | 253 kts | 162° |
| 2026-04-22 14:42 | 9.11132 | 39.02394 | 13838 ft | 248 kts | 162° |
| 2026-04-22 14:42 | 9.09497 | 39.02910 | 13667 ft | 245 kts | 162° |
| 2026-04-22 14:42 | 9.07867 | 39.03391 | 13303 ft | 242 kts | 169° |
| 2026-04-22 14:43 | 9.06209 | 39.03297 | 12902 ft | 241 kts | 199° |
| 2026-04-22 14:43 | 9.04826 | 39.02434 | 12559 ft | 228 kts | 225° |
| 2026-04-22 14:43 | 9.03964 | 39.01165 | 12254 ft | 211 kts | 245° |
| 2026-04-22 14:43 | 9.03483 | 38.99830 | 11947 ft | 194 kts | 251° |
| 2026-04-22 14:44 | 9.03098 | 38.98571 | 11641 ft | 181 kts | 251° |
| 2026-04-22 14:44 | 9.02746 | 38.97334 | 11392 ft | 187 kts | 252° |
| 2026-04-22 14:44 | 9.02381 | 38.96039 | 11102 ft | 195 kts | 252° |
| 2026-04-22 14:44 | 9.02119 | 38.95161 | 10844 ft | 198 kts | 252° |
| 2026-04-22 14:45 | 9.01580 | 38.93363 | 10340 ft | 201 kts | 252° |
| 2026-04-22 14:45 | 9.01193 | 38.92000 | 9941 ft | 201 kts | 252° |
| 2026-04-22 14:45 | 9.00823 | 38.90663 | 9701 ft | 193 kts | 252° |
| 2026-04-22 14:45 | 9.00434 | 38.89344 | 9757 ft | 199 kts | 250° |
| 2026-04-22 14:46 | 9.00082 | 38.88010 | 9744 ft | 190 kts | 253° |
| 2026-04-22 14:46 | 8.99757 | 38.86722 | 9190 ft | 189 kts | 250° |
| 2026-04-22 14:46 | 8.99393 | 38.85470 | 8747 ft | 184 kts | 251° |
| 2026-04-22 14:46 | 8.99128 | 38.84657 | 8484 ft | 183 kts | 252° |
| 2026-04-22 14:47 | 8.98549 | 38.82902 | 8088 ft | 198 kts | 253° |
| 2026-04-22 14:47 | 8.98312 | 38.82021 | 7780 ft | 195 kts | 253° |
| 2026-04-22 14:47 | 8.97937 | 38.80772 | 7619 ft | 171 kts | 251° |
| 2026-04-22 14:47 | 8.97664 | 38.79855 | 7620 ft | 102 kts | 252° |
| 2026-04-22 14:48 | 8.97524 | 38.79368 | 7620 ft | 54 kts | 255° |
| 2026-04-22 14:48 | 8.97503 | 38.79138 | 7620 ft | 20 kts | 272° |
| 2026-04-22 14:48 | 8.97515 | 38.79041 | 7620 ft | 14 kts | 279° |
| 2026-04-22 14:48 | 8.97533 | 38.78949 | 7624 ft | 13 kts | 281° |
| 2026-04-22 14:49 | 8.97555 | 38.78863 | 7622 ft | 12 kts | 294° |
| 2026-04-22 14:49 | 8.97607 | 38.78812 | 7621 ft | 7 kts | 341° |
| 2026-04-22 14:49 | 8.97658 | 38.78795 | 7621 ft | 8 kts | 341° |
| 2026-04-22 14:49 | 8.97668 | 38.78791 | 7621 ft | 1 kts | 341° |
| 2026-04-22 14:50 | 8.97675 | 38.78789 | 7621 ft | 1 kts | 341° |
| 2026-04-22 14:50 | 8.97686 | 38.78785 | 7621 ft | 2 kts | 341° |
| 2026-04-22 14:50 | 8.97702 | 38.78780 | 7621 ft | 3 kts | 341° |
| 2026-04-22 14:50 | 8.97731 | 38.78770 | 7621 ft | 6 kts | 341° |
| 2026-04-22 14:51 | 8.97789 | 38.78752 | 7621 ft | 11 kts | 347° |
| 2026-04-22 14:51 | 8.97856 | 38.78767 | 7620 ft | 10 kts | 58° |
| 2026-04-22 14:51 | 8.97884 | 38.78852 | 7620 ft | 16 kts | 73° |
| 2026-04-22 14:51 | 8.97914 | 38.78957 | 7621 ft | 15 kts | 74° |
| 2026-04-22 14:52 | 8.97946 | 38.79065 | 7619 ft | 16 kts | 73° |
| 2026-04-22 14:52 | 8.97975 | 38.79164 | 7619 ft | 15 kts | 73° |
| 2026-04-22 14:52 | 8.98003 | 38.79262 | 7619 ft | 14 kts | 74° |
| 2026-04-22 14:52 | 8.98031 | 38.79360 | 7618 ft | 15 kts | 74° |
| 2026-04-22 14:53 | 8.98058 | 38.79453 | 7618 ft | 14 kts | 73° |
| 2026-04-22 14:53 | 8.98085 | 38.79544 | 7618 ft | 14 kts | 73° |
| 2026-04-22 14:53 | 8.98120 | 38.79632 | 7618 ft | 13 kts | 47° |
| 2026-04-22 14:53 | 8.98179 | 38.79670 | 7617 ft | 8 kts | 359° |
| 2026-04-22 14:54 | 8.98229 | 38.79660 | 7617 ft | 6 kts | 344° |
| 2026-04-22 14:54 | 8.98240 | 38.79656 | 7617 ft | 1 kts | 342° |
| 2026-04-22 14:54 | 8.98241 | 38.79656 | 7617 ft | 0 kts | 342° |